Stratham, New Hampshire
Current Conditions -  °F | °C
As of 4:28 AM on Thursday 23 Oct 2014 (Local Time) from KPSM Reporting Station
Light Rain Light Rain  
Wind Chill: 41°   Ceiling: 600
Heat Index: 48°   Visibility: 2.5mi
Dew Point: 46°   Wind: 20mph
Humidity: 93%   Direction: 30°NNE
Pressure: 29.75"   Gusts: 30mph
Location:  43.02°N, 70.91°W
Report Text: KPSM 230828Z 03017G26KT 2 1/2SM -RA BR FEW003 OVC006 09/08 A2975 RMK AO2A
Loading
Personal Weather Stations






























Interactive Weather Map
Tropical Storm Tracking
New forecast layout! Learn more

10-Day Weather Forecast

Advertisements
Track Severe Weather on mobile